createdAt,value
2022-09-18T00:02:07.017Z,63.28
2022-09-18T00:04:36.311Z,63.10
2022-09-18T00:07:04.526Z,63.17
2022-09-18T00:09:35.611Z,63.74
2022-09-18T00:12:05.665Z,63.60
2022-09-18T00:14:35.378Z,63.84
2022-09-18T00:17:08.878Z,63.86
2022-09-18T00:19:38.205Z,63.26
2022-09-18T00:22:08.400Z,62.75
2022-09-18T00:24:39.275Z,62.93
2022-09-18T00:27:08.251Z,63.50
2022-09-18T00:29:37.877Z,63.30
2022-09-18T00:32:07.065Z,63.05
2022-09-18T00:34:36.251Z,63.10
2022-09-18T00:37:05.128Z,62.44
2022-09-18T00:39:33.759Z,63.03
2022-09-18T00:42:04.497Z,62.90
2022-09-18T00:44:40.010Z,62.99
2022-09-18T00:47:24.215Z,63.33
2022-09-18T00:49:59.091Z,63.42
2022-09-18T00:52:31.160Z,63.14
2022-09-18T00:55:07.484Z,62.72
2022-09-18T00:57:42.615Z,62.62
2022-09-18T01:00:14.462Z,62.20
2022-09-18T01:02:44.542Z,62.53
2022-09-18T01:05:14.792Z,62.40
2022-09-18T01:07:59.911Z,62.79
2022-09-18T01:10:42.097Z,62.13
2022-09-18T01:13:20.544Z,62.37
2022-09-18T01:15:52.585Z,62.21
2022-09-18T01:18:27.819Z,61.95
2022-09-18T01:21:07.259Z,61.37
2022-09-18T01:24:19.866Z,61.41
2022-09-18T01:26:55.674Z,60.76
2022-09-18T01:29:36.138Z,60.75
2022-09-18T01:32:09.542Z,60.76
2022-09-18T01:34:45.151Z,61.11
2022-09-18T01:37:22.081Z,61.29
2022-09-18T01:39:55.804Z,61.47
2022-09-18T01:42:26.602Z,61.50
2022-09-18T01:45:02.084Z,61.48
2022-09-18T01:47:37.502Z,61.73
2022-09-18T01:50:08.293Z,61.52
2022-09-18T01:52:40.364Z,61.37
2022-09-18T01:55:13.772Z,62.11
2022-09-18T01:57:51.109Z,61.84
2022-09-18T02:00:22.804Z,61.84
2022-09-18T02:02:55.980Z,62.24
2022-09-18T02:05:30.483Z,62.49
2022-09-18T02:08:10.215Z,62.64
2022-09-18T02:10:43.629Z,62.26
2022-09-18T02:13:17.447Z,62.48
2022-09-18T02:15:50.567Z,62.64
2022-09-18T02:18:28.130Z,62.62
2022-09-18T02:20:58.833Z,62.37
2022-09-18T02:23:29.954Z,61.87
2022-09-18T02:26:01.501Z,61.88
2022-09-18T02:28:32.264Z,61.61
2022-09-18T02:31:02.808Z,61.64
2022-09-18T02:33:36.594Z,61.99
2022-09-18T02:36:38.717Z,62.48
2022-09-18T02:39:22.218Z,62.54
2022-09-18T02:41:58.306Z,63.34
2022-09-18T02:44:39.978Z,63.64
2022-09-18T02:47:21.127Z,63.79
2022-09-18T02:49:57.830Z,63.33
2022-09-18T02:52:29.363Z,63.27
2022-09-18T02:55:05.634Z,63.85
2022-09-18T02:57:38.401Z,63.55
2022-09-18T03:00:15.372Z,63.68
2022-09-18T03:02:45.013Z,63.91
2022-09-18T03:05:15.147Z,63.77
2022-09-18T03:07:54.281Z,63.77
2022-09-18T03:10:22.233Z,63.71
2022-09-18T03:12:50.384Z,62.81
2022-09-18T03:15:18.774Z,63.71
2022-09-18T03:17:48.146Z,64.19
2022-09-18T03:20:18.834Z,64.27
2022-09-18T03:22:46.978Z,64.32
2022-09-18T03:25:15.444Z,64.98
2022-09-18T03:27:43.729Z,64.92
2022-09-18T03:30:16.654Z,65.20
2022-09-18T03:32:44.660Z,65.40
2022-09-18T03:35:14.393Z,65.77
2022-09-18T03:37:42.859Z,66.22
2022-09-18T03:40:14.249Z,66.67
2022-09-18T03:42:44.273Z,66.08
2022-09-18T03:45:12.975Z,65.85
2022-09-18T03:47:41.365Z,65.60
2022-09-18T03:50:11.200Z,65.44
2022-09-18T03:52:41.196Z,65.52
2022-09-18T03:55:26.632Z,65.42
2022-09-18T03:58:13.839Z,65.37
2022-09-18T04:00:50.644Z,65.24
2022-09-18T04:03:28.814Z,65.33
2022-09-18T04:06:17.215Z,65.22
2022-09-18T04:09:14.272Z,65.22
2022-09-18T04:11:48.595Z,65.43
2022-09-18T04:14:16.595Z,66.03
2022-09-18T04:16:49.170Z,67.06
2022-09-18T04:19:17.123Z,66.99
2022-09-18T04:21:46.107Z,66.53
2022-09-18T04:24:17.070Z,66.80
2022-09-18T04:26:47.281Z,66.73
2022-09-18T04:29:16.336Z,66.92
2022-09-18T04:31:45.300Z,67.08
2022-09-18T04:34:16.160Z,66.51
2022-09-18T04:36:44.606Z,67.11
2022-09-18T04:39:15.513Z,66.77
2022-09-18T04:41:46.452Z,66.87
2022-09-18T04:44:15.817Z,67.41
2022-09-18T04:46:45.355Z,67.83
2022-09-18T04:49:17.325Z,68.32
2022-09-18T04:51:46.473Z,67.99
2022-09-18T04:54:17.017Z,68.44
2022-09-18T04:56:47.309Z,68.71
2022-09-18T04:59:16.218Z,68.29
2022-09-18T05:01:47.355Z,68.08
2022-09-18T05:04:16.411Z,68.08
2022-09-18T05:06:59.294Z,67.57
2022-09-18T05:09:27.259Z,67.78
2022-09-18T05:11:57.390Z,67.59
2022-09-18T05:14:25.893Z,68.50
2022-09-18T05:16:59.232Z,68.52
2022-09-18T05:19:31.321Z,69.23
2022-09-18T05:22:14.544Z,69.03
2022-09-18T05:24:49.145Z,69.69
2022-09-18T05:27:18.443Z,69.49
2022-09-18T05:29:46.658Z,69.41
2022-09-18T05:32:20.299Z,69.43
2022-09-18T05:34:50.146Z,69.31
2022-09-18T05:37:19.399Z,68.94
2022-09-18T05:39:52.115Z,68.59
2022-09-18T05:42:21.519Z,68.73
2022-09-18T05:44:50.542Z,68.42
2022-09-18T05:47:23.726Z,68.61
2022-09-18T05:49:51.829Z,68.32
2022-09-18T05:52:24.195Z,68.13
2022-09-18T05:54:54.113Z,67.18
2022-09-18T05:57:23.751Z,66.97
2022-09-18T05:59:52.424Z,66.43
2022-09-18T06:02:21.189Z,66.67
2022-09-18T06:05:01.430Z,66.33
2022-09-18T06:07:30.000Z,66.25
2022-09-18T06:09:59.470Z,66.34
2022-09-18T06:12:30.009Z,66.47
2022-09-18T06:14:58.219Z,66.42
2022-09-18T06:17:28.463Z,66.47
2022-09-18T06:20:03.111Z,66.97
2022-09-18T06:22:32.560Z,67.15
2022-09-18T06:25:01.911Z,67.12
2022-09-18T06:27:36.755Z,67.29
2022-09-18T06:30:08.486Z,67.36
2022-09-18T06:32:38.406Z,67.62
2022-09-18T06:35:08.773Z,68.54
2022-09-18T06:37:37.176Z,68.64
2022-09-18T06:40:13.190Z,67.89
2022-09-18T06:42:59.686Z,68.09
2022-09-18T06:45:39.747Z,67.12
2022-09-18T06:48:08.629Z,67.07
2022-09-18T06:50:40.898Z,66.46
2022-09-18T06:53:12.685Z,66.01
2022-09-18T06:55:51.276Z,65.75
2022-09-18T06:58:23.989Z,65.73
2022-09-18T07:00:54.123Z,65.61
2022-09-18T07:03:30.213Z,65.25
2022-09-18T07:06:34.854Z,65.33
2022-09-18T07:09:03.065Z,65.72
2022-09-18T07:11:49.069Z,66.18
2022-09-18T07:14:19.337Z,66.40
2022-09-18T07:16:53.241Z,66.65
2022-09-18T07:19:21.711Z,66.15
2022-09-18T07:21:54.131Z,65.98
2022-09-18T07:24:22.694Z,65.67
2022-09-18T07:26:50.750Z,65.86
2022-09-18T07:29:22.901Z,65.79
2022-09-18T07:31:53.205Z,65.95
2022-09-18T07:34:22.119Z,66.11
2022-09-18T07:36:52.747Z,66.03
2022-09-18T07:39:26.046Z,66.33
2022-09-18T07:42:14.290Z,66.51
2022-09-18T07:44:51.079Z,67.01
2022-09-18T07:47:19.371Z,67.45
2022-09-18T07:49:47.934Z,68.20
2022-09-18T07:52:16.533Z,68.66
2022-09-18T07:54:49.654Z,69.02
2022-09-18T07:57:28.807Z,69.78
2022-09-18T08:00:17.163Z,70.06
2022-09-18T08:02:45.284Z,70.70
2022-09-18T08:05:24.921Z,70.50
2022-09-18T08:08:05.571Z,70.45
2022-09-18T08:10:52.232Z,70.91
2022-09-18T08:13:55.569Z,71.50
2022-09-18T08:16:38.672Z,72.06
2022-09-18T08:19:26.090Z,72.13
2022-09-18T08:22:02.872Z,72.51
2022-09-18T08:24:33.158Z,72.26
2022-09-18T08:27:03.540Z,72.21
2022-09-18T08:29:34.165Z,71.93
2022-09-18T08:32:10.188Z,71.81
2022-09-18T08:34:41.871Z,71.62
2022-09-18T08:37:16.559Z,70.92
2022-09-18T08:40:09.852Z,70.36
2022-09-18T08:43:02.400Z,70.62
2022-09-18T08:45:53.623Z,70.50
2022-09-18T08:48:28.869Z,69.72
2022-09-18T08:51:06.455Z,69.92
2022-09-18T08:53:41.597Z,69.87
2022-09-18T08:56:48.536Z,69.78
2022-09-18T08:59:40.412Z,70.33
2022-09-18T09:02:32.227Z,70.55
2022-09-18T09:05:07.526Z,70.73
2022-09-18T09:08:04.793Z,71.00
2022-09-18T09:10:44.328Z,71.89
2022-09-18T09:13:44.884Z,72.42
2022-09-18T09:16:17.618Z,72.25
2022-09-18T09:19:00.295Z,72.37
2022-09-18T09:21:47.601Z,72.88
2022-09-18T09:24:32.333Z,73.20
2022-09-18T09:27:19.332Z,73.18
2022-09-18T09:30:17.003Z,73.89
2022-09-18T09:33:24.510Z,74.11
2022-09-18T09:36:20.173Z,74.30
2022-09-18T09:38:58.000Z,74.40
2022-09-18T09:41:36.358Z,74.37
2022-09-18T09:44:32.344Z,74.21
2022-09-18T09:47:18.003Z,74.45
2022-09-18T09:49:58.398Z,74.50
2022-09-18T09:52:29.996Z,74.41
2022-09-18T09:55:23.393Z,74.27
2022-09-18T09:58:12.969Z,73.69
2022-09-18T10:00:55.229Z,73.46
2022-09-18T10:03:36.934Z,73.06
2022-09-18T10:06:23.775Z,72.37
2022-09-18T10:09:03.209Z,72.61
2022-09-18T10:11:39.253Z,72.83
2022-09-18T10:14:14.820Z,72.62
2022-09-18T10:16:49.717Z,72.69
2022-09-18T10:19:22.525Z,72.21
2022-09-18T10:21:55.892Z,72.16
2022-09-18T10:24:34.109Z,72.32
2022-09-18T10:27:12.793Z,72.62
2022-09-18T10:29:44.042Z,72.19
2022-09-18T10:32:34.779Z,72.51
2022-09-18T10:35:45.181Z,71.96
2022-09-18T10:38:31.968Z,71.45
2022-09-18T10:41:28.712Z,71.08
2022-09-18T10:44:08.125Z,70.20
2022-09-18T10:46:53.643Z,69.54
2022-09-18T10:49:28.235Z,68.74
2022-09-18T10:52:24.772Z,68.19
2022-09-18T10:55:12.708Z,67.11
2022-09-18T10:57:45.631Z,65.45
2022-09-18T11:00:51.269Z,65.07
2022-09-18T11:03:34.294Z,64.66
2022-09-18T11:06:04.921Z,63.98
2022-09-18T11:08:38.525Z,64.36
2022-09-18T11:11:12.528Z,64.38
2022-09-18T11:13:45.850Z,64.88
2022-09-18T11:16:27.782Z,64.14
2022-09-18T11:19:17.313Z,63.33
2022-09-18T11:21:51.188Z,63.18
2022-09-18T11:24:26.487Z,63.33
2022-09-18T11:27:05.786Z,62.22
2022-09-18T11:29:40.287Z,60.63
2022-09-18T11:32:21.831Z,60.38
2022-09-18T11:34:54.172Z,59.60
2022-09-18T11:37:33.115Z,59.15
2022-09-18T11:40:08.352Z,58.59
2022-09-18T11:42:45.366Z,58.50
2022-09-18T11:45:47.768Z,57.45
2022-09-18T11:48:29.798Z,57.35
2022-09-18T11:51:04.020Z,57.77
2022-09-18T11:53:39.290Z,57.48
2022-09-18T11:56:15.568Z,56.87
2022-09-18T11:58:48.903Z,57.13
2022-09-18T12:01:28.559Z,56.71
2022-09-18T12:04:04.838Z,55.69
2022-09-18T12:06:45.011Z,55.92
2022-09-18T12:09:21.833Z,56.19
2022-09-18T12:12:01.777Z,56.16
2022-09-18T12:14:41.971Z,55.98
2022-09-18T12:17:25.984Z,56.21
2022-09-18T12:19:59.580Z,55.71
2022-09-18T12:22:35.371Z,55.59
2022-09-18T12:25:11.939Z,55.15
2022-09-18T12:28:06.196Z,54.15
2022-09-18T12:30:43.353Z,53.91
2022-09-18T12:33:33.431Z,54.02
2022-09-18T12:36:38.417Z,53.75
2022-09-18T12:39:19.089Z,53.48
2022-09-18T12:42:04.707Z,54.10
2022-09-18T12:45:00.186Z,54.83
2022-09-18T12:47:42.525Z,53.43
2022-09-18T12:50:50.800Z,52.22
2022-09-18T12:53:36.922Z,50.81
2022-09-18T12:56:20.662Z,50.58
2022-09-18T12:59:11.360Z,51.16
2022-09-18T13:01:45.456Z,51.45
2022-09-18T13:04:22.630Z,52.51
2022-09-18T13:06:58.704Z,52.93
2022-09-18T13:09:34.846Z,53.51
2022-09-18T13:12:09.405Z,53.37
2022-09-18T13:14:46.502Z,53.99
2022-09-18T13:17:20.942Z,55.39
2022-09-18T13:19:54.520Z,55.13
2022-09-18T13:22:30.308Z,55.26
2022-09-18T13:25:03.736Z,56.29
2022-09-18T13:27:33.290Z,57.01
2022-09-18T13:30:18.213Z,57.72
2022-09-18T13:32:51.013Z,57.89
2022-09-18T13:35:26.027Z,58.28
2022-09-18T13:38:06.820Z,58.40
2022-09-18T13:40:40.854Z,58.35
2022-09-18T13:43:26.045Z,57.78
2022-09-18T13:45:56.383Z,58.26
2022-09-18T13:48:30.290Z,57.47
2022-09-18T13:51:03.207Z,57.41
2022-09-18T13:53:41.757Z,57.48
2022-09-18T13:56:14.456Z,57.22
2022-09-18T13:58:54.528Z,57.58
2022-09-18T14:01:57.215Z,57.58
2022-09-18T14:05:06.522Z,57.92
2022-09-18T14:07:56.583Z,58.55
2022-09-18T14:10:32.954Z,58.66
2022-09-18T14:13:37.103Z,58.31
2022-09-18T14:16:16.070Z,58.37
2022-09-18T14:19:06.466Z,58.17
2022-09-18T14:21:41.960Z,58.95
2022-09-18T14:24:39.647Z,59.12
2022-09-18T14:27:34.773Z,59.06
2022-09-18T14:30:21.748Z,58.39
2022-09-18T14:33:20.620Z,57.43
2022-09-18T14:35:58.560Z,56.46
2022-09-18T14:38:35.541Z,55.34
2022-09-18T14:41:19.616Z,54.99
2022-09-18T14:43:57.410Z,51.92
2022-09-18T14:46:28.833Z,49.83
2022-09-18T14:48:58.107Z,49.29
2022-09-18T14:51:28.843Z,47.44
2022-09-18T14:53:58.616Z,48.29
2022-09-18T14:56:31.088Z,47.20
2022-09-18T14:59:04.503Z,47.88
2022-09-18T15:01:36.697Z,48.36
2022-09-18T15:04:08.649Z,48.95
2022-09-18T15:06:41.725Z,48.96
2022-09-18T15:09:14.487Z,49.06
2022-09-18T15:12:01.741Z,50.27
2022-09-18T15:14:45.363Z,51.40
2022-09-18T15:17:23.521Z,52.20
2022-09-18T15:19:57.321Z,53.25
2022-09-18T15:22:27.204Z,53.10
2022-09-18T15:24:59.798Z,52.91
2022-09-18T15:27:30.478Z,52.71
2022-09-18T15:30:04.002Z,52.85
2022-09-18T15:32:40.416Z,52.70
2022-09-18T15:35:18.187Z,54.08
2022-09-18T15:37:53.991Z,54.24
2022-09-18T15:40:28.628Z,54.13
2022-09-18T15:43:02.226Z,53.49
2022-09-18T15:45:33.113Z,53.95
2022-09-18T15:48:24.496Z,53.55
2022-09-18T15:51:09.168Z,53.23
2022-09-18T15:53:39.234Z,53.57
2022-09-18T15:56:10.766Z,54.24
2022-09-18T15:58:52.244Z,54.19
2022-09-18T16:01:26.010Z,54.29
2022-09-18T16:04:08.769Z,55.11
2022-09-18T16:06:45.581Z,55.42
2022-09-18T16:09:28.945Z,55.47
2022-09-18T16:12:02.836Z,54.82
2022-09-18T16:14:44.365Z,55.14
2022-09-18T16:17:37.275Z,55.83
2022-09-18T16:20:34.853Z,55.94
2022-09-18T16:23:21.515Z,55.40
2022-09-18T16:26:07.337Z,55.18
2022-09-18T16:28:38.551Z,55.34
2022-09-18T16:31:07.695Z,54.61
2022-09-18T16:33:37.644Z,54.49
2022-09-18T16:36:14.131Z,56.17
2022-09-18T16:38:43.067Z,57.64
2022-09-18T16:41:12.849Z,58.01
2022-09-18T16:43:42.394Z,58.39
2022-09-18T16:46:12.180Z,58.70
2022-09-18T16:48:42.258Z,58.45
2022-09-18T16:51:12.087Z,58.79
2022-09-18T16:53:42.871Z,59.38
2022-09-18T16:56:15.857Z,60.80
2022-09-18T16:58:45.984Z,61.18
2022-09-18T17:01:16.263Z,61.65
2022-09-18T17:03:46.326Z,62.73
2022-09-18T17:06:18.977Z,63.59
2022-09-18T17:08:49.785Z,64.22
2022-09-18T17:11:20.800Z,64.80
2022-09-18T17:14:00.319Z,64.92
2022-09-18T17:16:43.805Z,65.14
2022-09-18T17:19:14.976Z,65.19
2022-09-18T17:21:47.060Z,66.12
2022-09-18T17:24:17.886Z,65.71
2022-09-18T17:26:48.407Z,65.73
2022-09-18T17:29:18.499Z,65.09
2022-09-18T17:31:46.792Z,64.88
2022-09-18T17:34:16.509Z,63.36
2022-09-18T17:36:47.323Z,62.85
2022-09-18T17:39:18.446Z,63.03
2022-09-18T17:41:50.273Z,63.44
2022-09-18T17:44:24.942Z,63.71
2022-09-18T17:46:55.823Z,64.25
2022-09-18T17:49:26.454Z,64.32
2022-09-18T17:52:02.721Z,64.83
2022-09-18T17:54:35.802Z,65.89
2022-09-18T17:57:11.379Z,66.10
2022-09-18T17:59:40.042Z,66.93
2022-09-18T18:02:09.584Z,66.67
2022-09-18T18:04:38.861Z,65.90
2022-09-18T18:07:09.194Z,66.84
2022-09-18T18:09:38.968Z,65.95
2022-09-18T18:12:07.523Z,66.18
2022-09-18T18:14:37.192Z,66.25
2022-09-18T18:17:08.822Z,66.75
2022-09-18T18:19:37.848Z,66.90
2022-09-18T18:22:05.981Z,67.27
2022-09-18T18:24:35.734Z,66.88
2022-09-18T18:27:05.166Z,67.11
2022-09-18T18:29:33.674Z,67.28
2022-09-18T18:32:02.758Z,67.46
2022-09-18T18:34:31.771Z,68.11
2022-09-18T18:37:00.998Z,68.40
2022-09-18T18:39:29.188Z,68.23
2022-09-18T18:42:00.048Z,68.15
2022-09-18T18:44:29.055Z,68.21
2022-09-18T18:46:57.592Z,68.54
2022-09-18T18:49:27.125Z,69.08
2022-09-18T18:51:56.274Z,68.63
2022-09-18T18:54:25.072Z,68.67
2022-09-18T18:56:53.968Z,68.62
2022-09-18T18:59:26.030Z,69.03
2022-09-18T19:01:57.771Z,68.66
2022-09-18T19:04:27.990Z,67.79
2022-09-18T19:06:56.988Z,68.10
2022-09-18T19:09:30.085Z,67.71
2022-09-18T19:11:58.398Z,67.02
2022-09-18T19:14:31.603Z,66.81
2022-09-18T19:17:01.540Z,66.56
2022-09-18T19:19:30.847Z,66.51
2022-09-18T19:22:00.140Z,67.10
2022-09-18T19:24:30.936Z,67.07
2022-09-18T19:27:01.407Z,67.93
2022-09-18T19:29:31.543Z,68.22
2022-09-18T19:32:00.633Z,68.35
2022-09-18T19:34:29.432Z,68.54
2022-09-18T19:36:59.887Z,68.92
2022-09-18T19:39:28.285Z,69.44
2022-09-18T19:42:00.287Z,69.70
2022-09-18T19:44:37.276Z,69.96
2022-09-18T19:47:08.654Z,70.21
2022-09-18T19:49:40.823Z,70.42
2022-09-18T19:52:18.070Z,69.88
2022-09-18T19:54:46.044Z,69.75
2022-09-18T19:57:14.790Z,68.99
2022-09-18T19:59:45.150Z,68.50
2022-09-18T20:02:15.127Z,67.81
2022-09-18T20:04:44.307Z,67.98
2022-09-18T20:07:14.031Z,68.20
2022-09-18T20:09:42.702Z,68.61
2022-09-18T20:12:11.249Z,69.99
2022-09-18T20:14:39.288Z,70.51
2022-09-18T20:17:10.178Z,70.98
2022-09-18T20:19:39.004Z,71.72
2022-09-18T20:22:07.030Z,71.70
2022-09-18T20:24:36.527Z,71.84
2022-09-18T20:27:05.352Z,72.25
2022-09-18T20:29:36.560Z,72.40
2022-09-18T20:32:05.351Z,72.75
2022-09-18T20:34:35.624Z,72.57
2022-09-18T20:37:06.604Z,71.24
2022-09-18T20:39:35.353Z,71.17
2022-09-18T20:42:03.671Z,70.45
2022-09-18T20:44:35.100Z,69.84
2022-09-18T20:47:05.673Z,68.65
2022-09-18T20:49:37.210Z,68.34
2022-09-18T20:52:06.530Z,67.65
2022-09-18T20:54:34.809Z,67.63
2022-09-18T20:57:04.602Z,67.71
2022-09-18T20:59:33.589Z,67.59
2022-09-18T21:02:02.402Z,67.70
2022-09-18T21:04:31.751Z,68.11
2022-09-18T21:07:01.882Z,68.30
2022-09-18T21:09:32.023Z,68.93
2022-09-18T21:12:01.381Z,69.68
2022-09-18T21:14:29.551Z,69.88
2022-09-18T21:16:57.782Z,69.79
2022-09-18T21:19:28.172Z,70.16
2022-09-18T21:21:56.585Z,70.65
2022-09-18T21:24:27.799Z,71.03
2022-09-18T21:26:55.916Z,70.66
2022-09-18T21:29:26.100Z,71.11
2022-09-18T21:31:57.321Z,71.26
2022-09-18T21:34:27.739Z,71.88
2022-09-18T21:36:58.796Z,71.53
2022-09-18T21:39:29.716Z,71.22
2022-09-18T21:41:59.529Z,71.53
2022-09-18T21:44:30.705Z,71.96
2022-09-18T21:47:02.525Z,72.81
2022-09-18T21:49:31.969Z,73.22
2022-09-18T21:52:01.705Z,72.76
2022-09-18T21:54:34.540Z,72.44
2022-09-18T21:57:04.825Z,72.21
2022-09-18T21:59:37.077Z,72.44
2022-09-18T22:02:08.843Z,72.09
2022-09-18T22:04:38.994Z,71.52
2022-09-18T22:07:08.185Z,71.54
2022-09-18T22:09:38.294Z,71.58
2022-09-18T22:12:07.801Z,71.15
2022-09-18T22:14:38.339Z,70.73
2022-09-18T22:17:09.485Z,69.85
2022-09-18T22:19:41.518Z,70.16
2022-09-18T22:22:12.389Z,70.48
2022-09-18T22:24:43.633Z,71.05
2022-09-18T22:27:13.372Z,70.81
2022-09-18T22:29:44.005Z,71.02
2022-09-18T22:32:12.133Z,70.64
2022-09-18T22:34:41.716Z,70.92
2022-09-18T22:37:13.310Z,70.74
2022-09-18T22:39:44.472Z,70.33
2022-09-18T22:42:15.857Z,70.20
2022-09-18T22:44:44.702Z,70.08
2022-09-18T22:47:15.735Z,69.96
2022-09-18T22:49:44.628Z,70.01
2022-09-18T22:52:15.067Z,70.41
2022-09-18T22:54:47.211Z,71.01
2022-09-18T22:57:16.949Z,71.49
2022-09-18T22:59:47.646Z,72.06
2022-09-18T23:02:16.344Z,71.90
2022-09-18T23:04:47.511Z,71.84
2022-09-18T23:07:18.169Z,72.73
2022-09-18T23:09:53.229Z,72.67
2022-09-18T23:12:22.499Z,72.56
2022-09-18T23:14:51.208Z,72.20
2022-09-18T23:17:19.331Z,71.76
2022-09-18T23:19:47.575Z,71.80
2022-09-18T23:22:16.426Z,71.97
2022-09-18T23:24:49.263Z,71.58
2022-09-18T23:27:18.485Z,71.29
2022-09-18T23:29:48.281Z,70.80
2022-09-18T23:32:16.925Z,71.29
2022-09-18T23:34:47.512Z,71.47
2022-09-18T23:37:18.993Z,71.48
2022-09-18T23:39:48.964Z,71.02
2022-09-18T23:42:18.479Z,70.83
2022-09-18T23:44:48.469Z,71.53
2022-09-18T23:47:18.179Z,71.58
2022-09-18T23:49:46.978Z,71.63
2022-09-18T23:52:16.754Z,71.26
2022-09-18T23:54:45.938Z,71.73
2022-09-18T23:57:18.514Z,71.09
2022-09-18T23:59:53.746Z,71.11
